Terminal Aerodrome Forecast
Issued by NWS

Home | Current Version | Previous Version | Text Only | Print | Product List | Glossary On
Versions: 1 2 3 4 5 6 7 8 9 10 11 12 13 14 15 16
000
FTUS43 KDVN 231720
TAFBRL
TAF
KBRL 231720Z 2318/2418 19012G18KT P6SM SKC
     FM240100 18007KT P6SM BKN070
     FM241200 20009KT P6SM BKN060=

USA.gov is the U.S. government's official web portal to all federal, state and local government web resources and services.